Tiempo atmosférico en la estación meteorológica de Valladolid, Valladolid (735 m.)



Fecha
DESCASC
Temp. máxima en grados centígrados (hora)
DESCASC
Temp. mínima en grados centígrados (hora)
DESCASC
Temp. media en grados centígrados
DESCASC
Racha de viento máxima en m/sg (hora)
DESCASC
Velocidad máxima media en intervalos de 10 minutos(hora)
DESCASC
Precipitaciones diarias en mm
DESCASC
Precipitaciones de 00:00 a 06:00 en mm
DESCASC
Precipitaciones de 06:00 a 12:00 en mm
DESCASC
Precipitaciones de 12:00 a 18:00 en mm
DESCASC
Precipitaciones de 18:00 a 24:00 en mm
DESCASC
22-04-2019 18.5 (17:50) 5.9 (07:40) 12.2 8.61 (14:10) 3.33 (17:20) 0.2 0 0 0 0.2
21-04-2019 15.7 (15:50) 6.7 (08:00) 11.2 8.61 (16:00) 4.44 (16:40) 0 0 0 0 0
20-04-2019 20.9 (17:30) 9.3 (06:50) 15.1 10.83 (17:00) 4.72 (12:50) 0 0 0 0 0
19-04-2019 14.9 (20:10) 8 (08:40) 11.4 10.56 (17:00) 6.11 (15:50) 6.8 6.8 0 0 0
18-04-2019 12.1 (13:20) 9.2 (00:00) 10.7 6.67 (14:10) 3.89 (15:40) 4.6 3.8 0 0.2 0.6
17-04-2019 20.3 (14:30) 8.7 (00:00) 14.5 11.94 (17:30) 4.72 (21:10) 0.2 0 0 0 0.2
16-04-2019 20.1 (18:00) 3.8 (00:00) 12 6.67 (16:40) 2.78 (14:40) 0 0 0 0 0
15-04-2019 21.2 (15:50) 9.7 (00:00) 15.5 18.33 (14:00) 8.33 (17:30) 6.6 0 0 6.6 0
14-04-2019 22.2 (18:30) 10.8 (00:00) 16.5 6.39 (02:20) 3.06 (00:10) 0 0 0 0 0
13-04-2019 20.8 (18:40) 3 (00:00) 11.9 6.39 (17:40) 2.5 (17:40) 0 0 0 0 0
12-04-2019 16.2 (18:40) 2.2 (08:00) 9.2 6.67 (00:50) 2.5 (01:00) 0 0 0 0 0
11-04-2019 14.6 (18:40) 1.6 (00:00) 8.1 6.94 (22:30) 3.89 (22:30) 0 0 0 0 0
10-04-2019 12.5 (18:10) 4 (00:00) 8.3 8.89 (00:20) 4.44 (00:20) 1.6 0 0.6 1 0
09-04-2019 12.1 (17:30) 4 (00:00) 8.1 12.5 (18:20) 6.11 (17:40) 2.4 0 0.4 1.6 0.4
08-04-2019 15.1 (17:00) 6.2 (00:00) 10.7 10 (15:40) 5 (19:00) 1.8 1.6 0.2 0 0
07-04-2019 12.5 (15:20) 2.1 (00:00) 7.3 11.11 (01:30) 5.28 (17:20) 3.8 0 0 0.2 3.6
06-04-2019 9.1 (19:00) 2.5 (00:00) 5.8 15.28 (16:30) 7.5 (15:50) 0.8 0 0.6 0.2 0
05-04-2019 7.5 (14:50) 3.6 (00:00) 5.5 9.17 (07:40) 4.72 (07:40) 3.4 2.8 0.4 0 0.2
04-04-2019 12.5 (16:40) -1 (-00:0) 5.8 9.72 (17:00) 4.72 (18:30) 0.6 0 0 0 0.6
03-04-2019 13.1 (16:00) 3.6 (23:59) 8.4 12.22 (18:20) 5.83 (18:20) 0 0 0 0 0
02-04-2019 18.9 (18:10) 5.8 (00:00) 12.3 9.17 (23:10) 4.17 (22:40) 0 0 0 0 0
01-04-2019 18.9 (17:00) 3.7 (00:00) 11.3 6.11 (00:30) 3.33 (00:30) 0 0 0 0 0
31-03-2019 18.7 (17:00) 6 (00:00) 12.4 10.28 (19:50) 4.72 (19:50) 0 0 0 0 0
30-03-2019 19.3 (16:20) 5.3 (00:00) 12.3 4.72 (15:20) 2.22 (00:30) 0 0 0 0 0
29-03-2019 20 (16:10) 2.1 (00:00) 11 6.39 (11:20) 3.33 (14:50) 0 0 0 0 0
28-03-2019 18.5 (16:30) 2.3 (00:00) 10.4 7.22 (20:00) 3.33 (13:30) 0 0 0 0 0
27-03-2019 19 (15:40) 2.6 (00:00) 10.8 11.67 (18:40) 3.33 (19:10) 0 0 0 0 0
26-03-2019 18.5 (16:30) 3.8 (00:00) 11.1 11.11 (13:20) 3.89 (20:00) 0 0 0 0 0
25-03-2019 15.4 (15:40) 5.3 (00:00) 10.3 11.11 (22:40) 3.33 (13:10) 0 0 0 0 0

Gráficas

Temp. máximas Temp. mínimas Temp. medias Precipitaciones Rachas de viento máximas Velocidades máximas media en intervalos de 10 minutos

Datos horarios

Fecha y hora oficial Temperatura (ºC) Velocidad del viento (km/h) Dirección del viento Racha (km/h) Dirección de racha Precipitación (mm) Presión (hPa) Tendencia (hPa) Humedad (%)
2019-04-23 23:00:00 6.2 8 Sudoeste 28 Oeste 0 916.1 2.4 76
2019-04-23 22:00:00 6.6 7 Sudoeste 23 Oeste 0 915.4 2.4 71
2019-04-23 21:00:00 7.6 16 Oeste 37 Oeste 0 914.4 1.8 71
2019-04-23 20:00:00 8.4 17 Oeste 31 Oeste 0 913.7 1.8 67
2019-04-23 19:00:00 9 15 Oeste 45 Oeste 0 913 1.4 64
2019-04-23 18:00:00 10 24 Oeste 49 Oeste 0 912.6 0.7 65
2019-04-23 17:00:00 10.5 6 Noroeste 43 Oeste 0.4 911.9 -0.5 61
2019-04-23 16:00:00 12.9 15 Oeste 31 Oeste 0 911.6 -1.2 38
2019-04-23 15:00:00 12.6 8 Sudoeste 27 Sudoeste 0 911.9 -0.7 42
2019-04-23 14:00:00 10.2 13 Sudoeste 29 Oeste 0 912.4 0.2 56
2019-04-23 13:00:00 8.7 12 Oeste 30 Oeste 0 912.8 0.8 65
2019-04-23 12:00:00 8.7 9 Oeste 26 Oeste 0 912.6 1 68
2019-04-23 11:00:00 7.7 15 Oeste 25 Oeste 0 912.2 0.7 76
2019-04-23 10:00:00 7.2 10 Oeste 21 Oeste 0 912 1 79
2019-04-23 09:00:00 6.7 9 Sudoeste 18 Sudoeste 0 911.6 0.6 87
2019-04-23 08:00:00 7 6 Sudoeste 21 Oeste 0 911.5 0.5 82
2019-04-23 07:00:00 7.3 5 Oeste 23 Oeste 0 911 -0.4 86
2019-04-23 06:00:00 8.1 10 Oeste 32 Noroeste 0.4 911 -0.9 86
2019-04-23 05:00:00 10.5 4 Sudoeste 15 Sur 0.2 911 -1.7 83
2019-04-23 04:00:00 11.1 5 Sur 15 Sur 0 911.4 -1.2 82
2019-04-23 03:00:00 11 6 Sur 14 Sudoeste 0.2 911.9 -0.9 82
2019-04-23 02:00:00 11.6 6 Oeste 25 Oeste 0.2 912.7 -0.4 81
2019-04-23 01:00:00 13 4 Sudoeste 10 Sur 0 912.6 -0.5 62
2019-04-23 00:00:00 13.4 2 Sur 12 Sur 0 912.8 -0.2 58
2019-04-22 23:00:00 14.1 4 Sudoeste 19 Oeste 0 913.1 0 56
2019-04-22 22:00:00 14.5 8 Sudoeste 24 Sudoeste 0.2 913.1 -0.5 58
2019-04-22 21:00:00 16 8 Sur 25 Sur 0 913 -1.2 50
2019-04-22 20:00:00 17.1 7 Sur 14 Oeste 0 913.1 -1.7 39
2019-04-22 19:00:00 18.1 4 Sudoeste 18 Sudoeste 0 913.6 -1.9 36
2019-04-22 18:00:00 18.3 10 Sudoeste 23 Noroeste 0 914.2 -2.2 36
2019-04-22 17:00:00 18.2 9 Oeste 27 Oeste 0 914.8 -2.5 35
2019-04-22 16:00:00 18.2 9 Sudoeste 23 Oeste 0 915.5 -2.9 37
2019-04-22 15:00:00 17.6 7 Oeste 31 Sur 0 916.4 -2.8 41
2019-04-22 14:00:00 15.1 5 Sur 12 Sudoeste 0 917.3 -2.2 49
2019-04-22 13:00:00 14 5 Noroeste 12 Oeste 0 918.4 -1.4 57
2019-04-22 12:00:00 12.6 4 Sudoeste 13 Sudoeste 0 919.2 -0.8 62
2019-04-22 11:00:00 11.8 4 Oeste 12 Oeste 0 919.5 -0.5 68
2019-04-22 10:00:00 9.8 3 Oeste 7 Oeste 0 919.8 -0.4 73
2019-04-22 09:00:00 7.2 2 Norte 7 Oeste 0 920 -0.8 84
2019-04-22 08:00:00 6 0 Calma 7 Oeste 0 920 -1.3 87
2019-04-22 07:00:00 6.3 4 Oeste 6 Oeste 0 920.2 -2.1 86
2019-04-22 06:00:00 6.9 4 Oeste 7 Sur 0 920.8 -2.3 86
2019-04-22 05:00:00 7.9 3 Noroeste 12 Nordeste 0 921.3 -2.6 80
2019-04-22 04:00:00 8.5 2 Norte 6 Noroeste 0 922.3 -2 83
2019-04-22 03:00:00 9.2 2 Norte 7 Noroeste 0 923.1 -1.7 80
2019-04-22 02:00:00 10.1 2 Norte 8 Norte 0 923.9 -1.1 74
2019-04-22 01:00:00 10.1 0 Calma 5 Norte 0 924.3 -0.6 72
2019-04-22 00:00:00 10.5 3 Noroeste 9 Nordeste 0 924.8 0.1 69
2019-04-21 23:00:00 11.1 7 Este 15 Nordeste 0 925 0.3 63
2019-04-21 22:00:00 11.4 8 Nordeste 19 Este 0 924.9 0 61
2019-04-21 21:00:00 12 6 Este 22 Este 0 924.7 -0.5 61
2019-04-21 20:00:00 12.7 13 Este 24 Este 0 924.7 -1 58
2019-04-21 19:00:00 13.8 8 Este 23 Este 0 924.9 -1.2 54
2019-04-21 18:00:00 13.7 8 Este 25 Sudeste 0 925.2 -1.6 55
2019-04-21 17:00:00 14 13 Este 29 Este 0 925.7 -1.8 54
2019-04-21 16:00:00 15.6 13 Nordeste 31 Nordeste 0 926.1 -2.4 45
2019-04-21 15:00:00 14.5 7 Norte 20 Nordeste 0 926.8 -2.2 53
2019-04-21 14:00:00 14.8 6 Norte 22 Norte 0 927.5 -1.8 54
2019-04-21 13:00:00 13.8 7 Norte 21 Nordeste 0 928.5 -1.1 55
2019-04-21 12:00:00 12.8 9 Nordeste 21 Este 0 929 -1.1 59
2019-04-21 11:00:00 10.7 4 Nordeste 15 Este 0 929.3 -0.5 72
2019-04-21 10:00:00 9.8 5 Norte 12 Norte 0 929.6 -0.2 76
2019-04-21 09:00:00 8.2 3 Nordeste 10 Nordeste 0 930.1 -0.2 79
2019-04-21 08:00:00 6.7 3 Nordeste 12 Este 0 929.8 -0.7 83
2019-04-21 07:00:00 7.1 3 Norte 15 Norte 0 929.8 -0.7 82
2019-04-21 06:00:00 7.9 5 Nordeste 13 Noroeste 0 930.3 -1 77
2019-04-21 05:00:00 8.9 6 Nordeste 18 Nordeste 0 930.5 -1 72
2019-04-21 04:00:00 9.7 5 Nordeste 24 Nordeste 0 930.5 -1.4 68
2019-04-21 03:00:00 10.6 5 Nordeste 17 Nordeste 0 931.3 -0.7 73
2019-04-21 02:00:00 11.4 5 Norte 18 Norte 0 931.5 -0.7 68
2019-04-21 01:00:00 12.5 6 Nordeste 23 Nordeste 0 931.9 0.3 63
2019-04-21 00:00:00 12.9 8 Nordeste 28 Este 0 932 1.2 59
2019-04-20 23:00:00 14.3 8 Norte 31 Nordeste 0 932.2 1.5 52
2019-04-20 22:00:00 15.5 6 Norte 28 Norte 0 931.6 0.9 44
2019-04-20 21:00:00 17.3 8 Nordeste 31 Nordeste 0 930.8 -0.1 36
2019-04-20 20:00:00 18.8 8 Nordeste 28 Nordeste 0 930.7 -0.8 34
2019-04-20 19:00:00 20 9 Nordeste 32 Nordeste 0 930.7 -1.3 31
2019-04-20 18:00:00 20.7 9 Nordeste 35 Norte 0 930.9 -1.7 30
2019-04-20 17:00:00 20.7 10 Nordeste 39 Nordeste 0 931.5 -1.7 32
2019-04-20 16:00:00 20.3 8 Nordeste 32 Nordeste 0 932 -1.9 40
2019-04-20 15:00:00 20 10 Nordeste 32 Nordeste 0 932.6 -1.6 41
2019-04-20 14:00:00 19.2 10 Nordeste 32 Este 0 933.2 -1 42
2019-04-20 13:00:00 18 13 Nordeste 32 Este 0 933.9 -0.3 43
2019-04-20 12:00:00 16.7 14 Nordeste 34 Nordeste 0 934.2 -0.3 45
2019-04-20 11:00:00 14.5 7 Norte 23 Nordeste 0 934.2 0.2 59
2019-04-20 10:00:00 12.1 7 Norte 19 Norte 0 934.2 -0.1 69
2019-04-20 09:00:00 10.3 4 Norte 17 Nordeste 0 934.5 0 77
2019-04-20 08:00:00 9.5 5 Norte 18 Norte 0 934 -1.3 81
2019-04-20 07:00:00 9.3 4 Norte 16 Nordeste 0 934.3 -1.2 84
2019-04-20 06:00:00 9.8 5 Norte 18 Norte 0 934.5 -0.9 82
2019-04-20 05:00:00 10.9 4 Norte 15 Norte 0 935.3 -0.1 76
2019-04-20 04:00:00 11.5 5 Nordeste 20 Nordeste 0 935.5 -0.4 70
2019-04-20 03:00:00 11.6 6 Nordeste 28 Nordeste 0 935.4 -0.5 69
2019-04-20 02:00:00 12.4 6 Nordeste 21 Nordeste 0 935.4 -0.5 64
2019-04-20 01:00:00 12.9 5 Nordeste 24 Nordeste 0 935.9 1.2 64
2019-04-20 00:00:00 13.6 13 Nordeste 32 Este 0 935.9 2.2 61
2019-04-19 23:00:00 13.9 15 Este 32 Nordeste 0 935.9 3.1 59
2019-04-19 22:00:00 13.4 12 Nordeste 30 Nordeste 0 934.7 2.3 66
2019-04-19 21:00:00 13.9 6 Norte 35 Este 0 933.7 1.2 71
2019-04-19 20:00:00 14.8 14 Nordeste 37 Este 0 932.8 0 60
2019-04-19 19:00:00 12.6 5 Nordeste 19 Nordeste 0 932.4 -0.3 78
2019-04-19 18:00:00 11.8 5 Norte 33 Nordeste 0 932.5 0 82
2019-04-19 17:00:00 12 14 Este 38 Este 0 932.8 0.5 78
2019-04-19 16:00:00 12.3 20 Este 35 Este 0 932.7 0.7 74
2019-04-19 15:00:00 13.6 15 Este 32 Este 0 932.5 0.7 65
2019-04-19 14:00:00 13.3 16 Este 33 Este 0 932.3 1.2 66
2019-04-19 13:00:00 14.1 13 Este 32 Sudeste 0 932 1.2 63
2019-04-19 12:00:00 13.5 14 Este 27 Este 0 931.8 1.8 66
2019-04-19 11:00:00 12.1 9 Este 22 Este 0 931.1 1.7 79
2019-04-19 10:00:00 9.3 5 Nordeste 14 Nordeste 0 930.8 2.1 89
2019-04-19 09:00:00 8.1 4 Nordeste 12 Este 0 930 1.7 92
2019-04-19 08:00:00 8.4 7 Este 18 Este 0 929.4 1.5 90
2019-04-19 07:00:00 8.5 8 Este 15 Este 0 928.7 1.4 92
2019-04-19 06:00:00 8.6 8 Sudeste 21 Sudeste 0 928.3 0.7 92
2019-04-19 05:00:00 8.8 11 Este 22 Este 0 927.9 0.1 93
2019-04-19 04:00:00 8.8 5 Este 14 Este 0.2 927.3 -0.7 95
2019-04-19 03:00:00 8.8 8 Este 15 Nordeste 1.2 927.6 -0.6 95
2019-04-19 02:00:00 9 3 Norte 11 Nordeste 3.4 927.8 -0.3 96
2019-04-19 01:00:00 9.2 5 Este 17 Sudeste 2 928 0.3 94
2019-04-19 00:00:00 9.7 5 Nordeste 18 Norte 0.6 928.2 0.7 93
2019-04-18 23:00:00 9.9 3 Nordeste 14 Norte 0 928.1 0.8 91
2019-04-18 22:00:00 10 5 Norte 17 Noroeste 0 927.7 0.5 89
2019-04-18 21:00:00 10.2 4 Norte 15 Norte 0 927.5 0.3 85
2019-04-18 20:00:00 10.6 4 Norte 13 Nordeste 0 927.3 -0.3 81
2019-04-18 19:00:00 10.6 5 Norte 15 Noroeste 0 927.2 -0.3 80
2019-04-18 18:00:00 10.5 5 Norte 16 Norte 0.2 927.2 -0.3 79
2019-04-18 17:00:00 11 4 Nordeste 22 Este 0 927.6 -0.3 77
2019-04-18 16:00:00 10.8 10 Este 23 Este 0 927.5 -0.7 82
2019-04-18 15:00:00 11.4 5 Este 24 Este 0 927.5 -1.1 76
2019-04-18 14:00:00 11.7 12 Este 23 Este 0 927.9 -0.6 79
2019-04-18 13:00:00 11.8 6 Nordeste 14 Nordeste 0 928.2 -0.1 71
2019-04-18 12:00:00 10.6 9 Este 14 Este 0 928.6 0.3 80
2019-04-18 11:00:00 10.5 5 Este 10 Este 0 928.5 0.8 83
2019-04-18 10:00:00 10 5 Este 9 Este 0 928.3 1.4 88
2019-04-18 09:00:00 9.5 3 Este 6 Sudeste 0 928.3 1.2 91
2019-04-18 08:00:00 9.3 2 Sudeste 7 Sudeste 0 927.7 0.6 93
2019-04-18 07:00:00 9.3 3 Sudeste 8 Sur 0 926.9 0.1 92
2019-04-18 06:00:00 9.5 5 Sudeste 10 Sudeste 0 927.1 -0.2 92
2019-04-18 05:00:00 9.5 4 Sudeste 10 Sudeste 0.2 927.1 -0.1 93
2019-04-18 04:00:00 9.5 2 Sur 12 Sur 0.4 926.8 0.4 93
2019-04-18 03:00:00 9.6 3 Sudoeste 14 Sudoeste 2.2 927.3 0.9 92
2019-04-18 02:00:00 10.7 8 Oeste 15 Sudoeste 1 927.2 1.7 85
2019-04-18 01:00:00 11.2 3 Noroeste 7 Oeste 0 926.4 1.8 76
2019-04-18 00:00:00 11.6 5 Oeste 24 Oeste 0 926.4 2.5 76
2019-04-17 23:00:00 15.7 13 Oeste 39 Sur 0 925.5 1.9 56
2019-04-17 22:00:00 17.5 16 Sur 37 Sur 0 924.6 1.3 45
2019-04-17 21:00:00 17.5 10 Sur 34 Sur 0 923.9 0.9 47
2019-04-17 20:00:00 17.5 15 Sur 35 Sur 0.2 923.6 0.4 47
2019-04-17 19:00:00 19.4 8 Sur 35 Sur 0 923.3 -0.2 39
2019-04-17 18:00:00 20.1 13 Sur 43 Sur 0 923 -1.1 35
2019-04-17 17:00:00 19.7 13 Sudeste 36 Sur 0 923.2 -1.6 35
2019-04-17 16:00:00 19.6 9 Sudeste 40 Sudeste 0 923.5 -1.9 34
2019-04-17 15:00:00 19.9 10 Sudeste 28 Sur 0 924.1 -1.5 33
2019-04-17 14:00:00 19.2 15 Sur 33 Sur 0 924.8 -0.9 33
2019-04-17 13:00:00 17.3 11 Sur 30 Sur 0 925.4 -0.4 42
2019-04-17 12:00:00 13.9 5 Este 16 Este 0 925.6 -0.4 61
2019-04-17 11:00:00 13.1 5 Sudeste 11 Sudeste 0 925.7 0.1 64
2019-04-17 10:00:00 11.2 2 Nordeste 10 Sudeste 0 925.8 0.2 72
2019-04-17 09:00:00 9.9 3 Sudoeste 6 Sudeste 0 926 0.2 74
2019-04-17 08:00:00 8.9 2 Noroeste 5 Norte 0 925.6 -0.3 74
2019-04-17 07:00:00 9 2 Noroeste 7 Noroeste 0 925.6 -0.8 69
2019-04-17 06:00:00 9.1 4 Oeste 8 Oeste 0 925.8 -1.1 67
2019-04-17 05:00:00 9.9 0 Calma 13 Este 0 925.9 -1.5 63
2019-04-17 04:00:00 10.5 3 Nordeste 14 Este 0 926.4 -1.6 60
2019-04-17 03:00:00 11.2 5 Nordeste 10 Este 0 926.9 -1.2 55
2019-04-17 02:00:00 12.1 4 Noroeste 10 Sudeste 0 927.4 -0.8 52
2019-04-17 01:00:00 13.2 6 Sudeste 15 Oeste 0 928 -0.3 46
2019-04-17 00:00:00 14.8 7 Sudoeste 20 Sudoeste 0 928.1 0.1 40
2019-04-16 23:00:00 15.8 7 Sudeste 15 Sudeste 0 928.2 0.1 37
2019-04-16 22:00:00 16.9 6 Sudeste 17 Sudeste 0 928.3 0 32
2019-04-16 21:00:00 18.4 6 Sudeste 18 Sudeste 0 928 -0.8 30
2019-04-16 20:00:00 19.5 6 Sur 15 Sur 0 928.1 -1.6 29
2019-04-16 19:00:00 19.4 5 Nordeste 17 Sudeste 0 928.3 -2.3 33
2019-04-16 18:00:00 20 7 Este 18 Este 0 928.8 -2.4 30
2019-04-16 17:00:00 19.5 6 Sudeste 24 Sudeste 0 929.7 -2.3 29
2019-04-16 16:00:00 18.9 9 Sudeste 19 Sudeste 0 930.6 -1.9 27
2019-04-16 15:00:00 17.4 5 Sur 18 Sudeste 0 931.2 -1.7 42
2019-04-16 14:00:00 16.2 6 Sudeste 16 Sudeste 0 932 -1.4 46
2019-04-16 13:00:00 14.3 8 Este 16 Este 0 932.5 -0.8 57
2019-04-16 12:00:00 12.9 5 Este 13 Este 0 932.9 -0.6 60
2019-04-16 11:00:00 11.1 4 Este 10 Sudeste 0 933.4 0.1 67
2019-04-16 10:00:00 7.8 3 Norte 8 Sudeste 0 933.3 0.1 83
2019-04-16 09:00:00 5.9 3 Sudeste 12 Sur 0 933.5 0.8 90
2019-04-16 08:00:00 4.3 5 Sur 8 Sudeste 0 933.3 0.7 95
2019-04-16 07:00:00 4.7 3 Sur 11 Sur 0 933.2 0.6 91
2019-04-16 06:00:00 5.8 4 Sudoeste 14 Sur 0 932.7 0.2 88
2019-04-16 05:00:00 6.8 9 Sudoeste 14 Sudoeste 0 932.6 0.3 84
2019-04-16 04:00:00 6.8 3 Oeste 8 Oeste 0 932.6 0.4 84
2019-04-16 03:00:00 7.6 4 Oeste 17 Oeste 0 932.5 0.6 81
2019-04-16 02:00:00 7.8 5 Oeste 15 Oeste 0 932.3 1.1 80
2019-04-16 01:00:00 8.4 4 Oeste 19 Sudoeste 0 932.2 2.1 81
2019-04-16 00:00:00 9.7 6 Oeste 17 Oeste 0 931.9 2.8 76
2019-04-15 23:00:00 11 2 Nordeste 15 Sudoeste 0 931.2 2.6 71
2019-04-15 22:00:00 11.7 6 Sudoeste 27 Oeste 0 930.1 2.5 68
2019-04-15 21:00:00 13.2 15 Oeste 33 Oeste 0 929.1 2.4 59
2019-04-15 20:00:00 12.8 19 Oeste 47 Oeste 0 928.6 2.7 67
2019-04-15 19:00:00 14 24 Oeste 51 Oeste 0 927.6 2.7 54
2019-04-15 18:00:00 16.2 23 Oeste 59 Oeste 0 926.7 2.3 49
2019-04-15 17:00:00 17.1 26 Oeste 55 Noroeste 0 925.9 0.8 52
2019-04-15 16:00:00 20.3 21 Oeste 45 Sudoeste 0 924.9 -0.6 42
2019-04-15 15:00:00 19.5 19 Oeste 49 Sudoeste 2.8 924.4 -1.7 50
2019-04-15 14:00:00 16.7 23 Oeste 66 Sudoeste 3.8 925.1 -1.4 61
2019-04-15 13:00:00 20.1 12 Sur 25 Sur 0 925.5 -1.4 51
2019-04-15 12:00:00 17.8 7 Sudeste 17 Sur 0 926.1 -1 61
2019-04-15 11:00:00 14.9 5 Sur 11 Sur 0 926.5 -1.1 70
2019-04-15 10:00:00 12.8 4 Sur 10 Sur 0 926.9 -0.6 76
2019-04-15 09:00:00 11.6 0 Calma 8 Sudeste 0 927.1 -1.1 81
2019-04-15 08:00:00 11.2 3 Sudeste 5 Sudeste 0 927.6 -0.9 81
2019-04-15 07:00:00 11 3 Norte 5 Oeste 0 927.5 -1.6 84
2019-04-15 06:00:00 11.8 2 Sudeste 5 Sudeste 0 928.2 -1.4 80
2019-04-15 05:00:00 12.3 3 Sudeste 8 Sudoeste 0 928.5 -1.3 77
2019-04-15 04:00:00 12.4 3 Sudeste 5 Sudeste 0 929.1 -1.4 79
2019-04-15 03:00:00 12.5 4 Oeste 7 Este 0 929.6 -1 79
2019-04-15 02:00:00 13.2 5 Este 8 Este 0 929.8 -0.7 76
2019-04-15 01:00:00 13.4 4 Noroeste 6 Oeste 0 930.5 -0.1 75
2019-04-15 00:00:00 14.6 4 Nordeste 7 Este 0 930.6 0.3 70
2019-04-14 23:00:00 15.2 4 Oeste 12 Oeste 0 930.5 0.3 68
2019-04-14 22:00:00 16.2 5 Oeste 10 Oeste 0 930.6 0.3 63
2019-04-14 21:00:00 18.5 5 Oeste 14 Oeste 0 930.3 -0.1 54
2019-04-14 20:00:00 20.2 8 Oeste 19 Oeste 0 930.2 -0.7 49
2019-04-14 19:00:00 21.2 6 Oeste 16 Oeste 0 930.3 -1.3 45
2019-04-14 18:00:00 21.5 4 Oeste 15 Sudoeste 0 930.4 -1.6 43
2019-04-14 17:00:00 21.3 8 Oeste 17 Oeste 0 930.9 -1.2 45
2019-04-14 16:00:00 20 5 Sudoeste 17 Oeste 0 931.6 -0.7 48
2019-04-14 15:00:00 19.2 5 Sudoeste 18 Oeste 0 932 -0.8 51
2019-04-14 14:00:00 18.4 6 Oeste 19 Sudoeste 0 932.1 -0.8 54
2019-04-14 13:00:00 17.6 9 Sudoeste 19 Sudoeste 0 932.3 -0.5 60
2019-04-14 12:00:00 15.5 8 Sur 15 Sur 0 932.8 0.2 69
2019-04-14 11:00:00 13.6 5 Sudoeste 17 Oeste 0 932.9 0.4 78
2019-04-14 10:00:00 11.9 8 Oeste 18 Oeste 0 932.8 0.6 85
2019-04-14 09:00:00 10.9 4 Sur 12 Sur 0 932.6 0.4 87
2019-04-14 08:00:00 10.9 4 Sur 12 Sudeste 0 932.5 0 86
2019-04-14 07:00:00 11.6 4 Sur 17 Sudoeste 0 932.2 -0.4 83
2019-04-14 06:00:00 11.9 9 Sudoeste 18 Oeste 0 932.2 -0.6 80
2019-04-14 05:00:00 12.4 7 Sudoeste 15 Oeste 0 932.5 -0.4 76
2019-04-14 04:00:00 12.9 6 Sudoeste 16 Oeste 0 932.6 -0.3 71
2019-04-14 03:00:00 13.3 4 Sudoeste 23 Sudoeste 0 932.8 -0.1 67
2019-04-14 02:00:00 13.5 8 Oeste 19 Sudoeste 0 932.9 -0.1 63
2019-04-14 01:00:00 13.6 5 Oeste 20 Oeste 0 932.9 0.3 58
2019-04-14 00:00:00 13.8 9 Oeste 23 Oeste 0 932.9 0.9 53
2019-04-13 23:00:00 13.5 4 Oeste 13 Oeste 0 933 1.1 50
2019-04-13 22:00:00 14.8 6 Oeste 16 Oeste 0 932.6 0.8 45
2019-04-13 21:00:00 16.9 4 Oeste 10 Oeste 0 932 0 36
2019-04-13 20:00:00 18.9 5 Oeste 16 Oeste 0 931.9 -0.4 28
2019-04-13 19:00:00 20.4 7 Oeste 23 Noroeste 0 931.8 -0.9 23
2019-04-13 18:00:00 20.4 6 Sur 23 Oeste 0 932 -1.3 22
2019-04-13 17:00:00 20.2 7 Sudoeste 21 Oeste 0 932.3 -1.3 24
2019-04-13 16:00:00 19.3 8 Sudoeste 18 Sudoeste 0 932.7 -1.4 28
2019-04-13 15:00:00 18.4 6 Noroeste 19 Oeste 0 933.3 -1.3 29
2019-04-13 14:00:00 17.7 4 Sudoeste 16 Oeste 0 933.6 -1.2 32
2019-04-13 13:00:00 16 5 Oeste 15 Sudeste 0 934.1 -0.7 37
2019-04-13 12:00:00 13.3 5 Sur 13 Sur 0 934.6 0 45
2019-04-13 11:00:00 10.7 4 Sudoeste 9 Sudeste 0 934.8 0.5 52
2019-04-13 10:00:00 7.2 2 Oeste 5 Oeste 0 934.8 0.9 66
2019-04-13 09:00:00 4.3 0 Calma 4 Nordeste 0 934.6 1 76
2019-04-13 08:00:00 3 0 Calma 4 Norte 0 934.3 0.9 78
2019-04-13 07:00:00 3.4 0 Calma 4 Nordeste 0 933.9 0.3 76
2019-04-13 06:00:00 3.8 2 Norte 6 Nordeste 0 933.6 -0.2 73
2019-04-13 05:00:00 4 2 Norte 8 Norte 0 933.4 -0.9 70
2019-04-13 04:00:00 4.6 2 Norte 6 Norte 0 933.6 -0.3 69
2019-04-13 03:00:00 5.4 2 Norte 5 Norte 0 933.8 0.1 64
2019-04-13 02:00:00 6 2 Norte 10 Oeste 0 934.3 0.6 62
2019-04-13 01:00:00 7.3 3 Nordeste 7 Nordeste 0 933.9 0.6 57
2019-04-13 00:00:00 8.7 0 Calma 6 Oeste 0 933.7 1 52
2019-04-12 23:00:00 9.7 5 Oeste 9 Noroeste 0 933.7 1.3 48
2019-04-12 22:00:00 10.7 6 Noroeste 9 Noroeste 0 933.3 0.8 47
2019-04-12 21:00:00 12.8 4 Noroeste 13 Noroeste 0 932.7 0.1 40
2019-04-12 20:00:00 14.3 7 Noroeste 15 Norte 0 932.4 -0.3 36
2019-04-12 19:00:00 15.4 6 Noroeste 15 Norte 0 932.5 -1.1 34
2019-04-12 18:00:00 15.8 5 Sur 18 Norte 0 932.6 -1.4 33
2019-04-12 17:00:00 15.6 6 Norte 18 Noroeste 0 932.7 -1.8 34
2019-04-12 16:00:00 15.1 4 Norte 18 Norte 0 933.6 -1.3 36
2019-04-12 15:00:00 13.9 8 Noroeste 19 Norte 0 934 -1.2 40
2019-04-12 14:00:00 13.5 8 Noroeste 19 Norte 0 934.5 -0.6 44
2019-04-12 13:00:00 11.6 7 Norte 14 Norte 0 934.9 -0.1 49
2019-04-12 12:00:00 10.1 5 Nordeste 13 Norte 0 935.2 0.1 52
2019-04-12 11:00:00 7.9 5 Norte 14 Este 0 935.1 0.3 70
2019-04-12 10:00:00 6.1 4 Norte 8 Norte 0 935 0.5 81
2019-04-12 09:00:00 3.5 3 Noroeste 6 Noroeste 0 935.1 0.6 92
2019-04-12 08:00:00 2.2 2 Norte 5 Norte 0 934.8 0.3 94
2019-04-12 07:00:00 2.5 3 Norte 8 Norte 0 934.5 -0.1 92
2019-04-12 06:00:00 2.9 3 Noroeste 7 Norte 0 934.5 -0.2 92
2019-04-12 05:00:00 3.1 3 Noroeste 6 Oeste 0 934.5 -0.4 90
2019-04-12 04:00:00 3.9 3 Noroeste 5 Noroeste 0 934.6 -0.3 86
2019-04-12 03:00:00 5.1 3 Noroeste 13 Este 0 934.7 -0.2 83
2019-04-12 02:00:00 6.3 5 Nordeste 19 Este 0 934.9 0.3 77
2019-04-12 01:00:00 6.9 9 Nordeste 24 Nordeste 0 934.9 1 74
2019-04-12 00:00:00 7.6 5 Nordeste 22 Este 0 934.9 1.6 72
2019-04-11 23:00:00 9 8 Este 25 Este 0 934.6 1.4 66
2019-04-11 22:00:00 10.5 4 Oeste 11 Noroeste 0 933.9 0.8 53
2019-04-11 21:00:00 11.6 3 Norte 9 Nordeste 0 933.3 0.1 42
2019-04-11 20:00:00 12.6 3 Nordeste 15 Norte 0 933.2 -0.1 38
2019-04-11 19:00:00 14.1 10 Noroeste 22 Norte 0 933.1 -0.5 35
2019-04-11 18:00:00 13.9 8 Norte 19 Norte 0 933.2 -0.8 35
2019-04-11 17:00:00 12.9 8 Noroeste 20 Norte 0 933.3 -1 41
2019-04-11 16:00:00 12.7 6 Norte 23 Norte 0 933.6 -1.1 40
2019-04-11 15:00:00 12.4 8 Noroeste 18 Noroeste 0 934 -0.9 42
2019-04-11 14:00:00 12.5 9 Noroeste 19 Noroeste 0 934.3 -0.5 44
2019-04-11 13:00:00 10.7 6 Oeste 14 Oeste 0 934.7 0 56
2019-04-11 12:00:00 9.5 8 Oeste 13 Oeste 0 934.9 0.2 64
2019-04-11 11:00:00 8.2 5 Sudoeste 12 Sur 0 934.8 0.6 68
2019-04-11 10:00:00 6 2 Nordeste 5 Este 0 934.7 0.8 80
2019-04-11 09:00:00 3.4 2 Nordeste 5 Sudeste 0 934.7 0.8 89
2019-04-11 08:00:00 1.6 0 Calma 6 Oeste 0 934.2 0.3 93
2019-04-11 07:00:00 2 3 Norte 4 Norte 0 933.9 0.3 92
2019-04-11 06:00:00 2.1 0 Calma 6 Noroeste 0 933.9 0.4 91
2019-04-11 05:00:00 2.4 5 Oeste 8 Oeste 0 933.9 0.2 90
2019-04-11 04:00:00 3.4 4 Oeste 6 Oeste 0 933.6 0 89
2019-04-11 03:00:00 4.3 4 Oeste 6 Oeste 0 933.5 0.3 88
2019-04-11 02:00:00 5.4 3 Norte 10 Noroeste 0 933.7 0.6 83
2019-04-11 01:00:00 6.6 4 Norte 17 Nordeste 0 933.6 1.4 79
2019-04-11 00:00:00 7.5 4 Nordeste 17 Nordeste 0 933.2 2.5 78
2019-04-10 23:00:00 8 3 Nordeste 11 Norte 0 933.1 3.2 78
2019-04-10 22:00:00 8.5 5 Norte 18 Norte 0 932.2 2.8 73
2019-04-10 21:00:00 9.6 6 Norte 17 Nordeste 0 930.7 1.7 66
2019-04-10 20:00:00 11 6 Norte 18 Noroeste 0 929.9 0.9 53
2019-04-10 19:00:00 11.6 8 Norte 23 Norte 0 929.4 0.2 57
2019-04-10 18:00:00 11.9 8 Noroeste 22 Noroeste 0 929 -0.2 63
2019-04-10 17:00:00 10.5 4 Este 13 Este 0 929 -0.3 68
2019-04-10 16:00:00 10.6 5 Nordeste 22 Nordeste 0.2 929.2 -0.4 75
2019-04-10 15:00:00 10.1 5 Nordeste 15 Nordeste 0.4 929.2 -0.5 78
2019-04-10 14:00:00 9.5 8 Norte 18 Sudoeste 0.2 929.3 -0.4 73
2019-04-10 13:00:00 9.3 6 Oeste 17 Oeste 0.2 929.6 0.4 71
2019-04-10 12:00:00 7.8 6 Oeste 16 Oeste 0 929.7 0.6 83
2019-04-10 11:00:00 6.5 9 Oeste 18 Sudoeste 0 929.7 1.2 86
2019-04-10 10:00:00 5.6 9 Oeste 20 Oeste 0.2 929.2 1.1 89
2019-04-10 09:00:00 5 8 Oeste 23 Oeste 0.4 929.1 1.1 93
2019-04-10 08:00:00 4.8 8 Oeste 27 Oeste 0 928.5 0.6 92
2019-04-10 07:00:00 4 9 Oeste 22 Oeste 0 928.1 0.2 92
2019-04-10 06:00:00 4.1 11 Oeste 23 Oeste 0 928 -0.1 92
2019-04-10 05:00:00 4.2 11 Oeste 28 Oeste 0 927.9 -0.3 90
2019-04-10 04:00:00 4.6 15 Oeste 29 Oeste 0 927.9 -0.1 90
2019-04-10 03:00:00 5.5 12 Oeste 31 Oeste 0 928.1 0.4 88
2019-04-10 02:00:00 6.1 11 Oeste 32 Sudoeste 0 928.2 0.4 87
2019-04-10 01:00:00 6.6 15 Oeste 32 Oeste 0 928 0.6 83
2019-04-10 00:00:00 6.5 17 Oeste 34 Oeste 0 927.7 0.8 83
2019-04-09 23:00:00 6.9 15 Oeste 39 Oeste 0.2 927.8 1.5 82
2019-04-09 22:00:00 7.9 17 Oeste 39 Oeste 0 927.4 1.3 76
2019-04-09 21:00:00 8.6 12 Oeste 30 Oeste 0 926.9 0.8 69
2019-04-09 20:00:00 10.1 16 Oeste 37 Oeste 0 926.3 0.2 60
2019-04-09 19:00:00 9.6 9 Oeste 45 Oeste 0.2 926.1 -0.5 72
2019-04-09 18:00:00 11.9 19 Oeste 43 Oeste 0 926.1 -0.6 54
2019-04-09 17:00:00 10 10 Noroeste 33 Oeste 0.2 926.1 -0.4 70
2019-04-09 16:00:00 9.8 15 Oeste 36 Oeste 0 926.6 0.2 60
2019-04-09 15:00:00 8.8 15 Oeste 37 Oeste 0 926.7 0.3 73
2019-04-09 14:00:00 7.7 15 Oeste 41 Oeste 0 926.5 0.2 82
2019-04-09 13:00:00 6.7 15 Oeste 37 Oeste 1.4 926.4 -0.2 87
2019-04-09 12:00:00 7.4 14 Oeste 37 Oeste 0.2 926.4 -0.3 82
2019-04-09 11:00:00 7.4 11 Sudoeste 28 Oeste 0.2 926.3 -0.2 80
2019-04-09 10:00:00 6.2 5 Sudoeste 17 Sur 0 926.6 0.1 89
2019-04-09 09:00:00 5.4 5 Sur 15 Sur 0 926.7 0 91
2019-04-09 08:00:00 4.8 7 Sur 16 Sur 0 926.5 -0.5 91
2019-04-09 07:00:00 4.5 7 Sur 13 Sur 0 926.5 -0.8 89
2019-04-09 06:00:00 4.4 5 Sur 13 Sur 0 926.7 -0.8 90
2019-04-09 05:00:00 4.1 3 Sur 16 Sur 0 927 -0.4 90
2019-04-09 04:00:00 4.8 8 Sudoeste 17 Sudoeste 0 927.3 0 87
2019-04-09 03:00:00 4.8 5 Sur 18 Sudoeste 0 927.5 0.1 86
2019-04-09 02:00:00 5.7 6 Sur 15 Oeste 0 927.4 0 82
2019-04-09 01:00:00 6.7 6 Sudoeste 15 Sudoeste 0 927.3 0.2 77
2019-04-09 00:00:00 7.4 4 Sur 21 Sudoeste 0 927.4 1 73
2019-04-08 23:00:00 8.3 11 Oeste 25 Oeste 0 927.4 1 70
2019-04-08 22:00:00 8.8 11 Sudoeste 26 Oeste 0 927.1 0.8 67
2019-04-08 21:00:00 10.4 15 Oeste 33 Sudoeste 0 926.4 0.2 54
2019-04-08 20:00:00 11.7 16 Oeste 28 Oeste 0 926.4 -0.2 51
2019-04-08 19:00:00 13 18 Oeste 33 Sudoeste 0 926.3 -0.7 46
2019-04-08 18:00:00 14.5 14 Oeste 33 Oeste 0 926.2 -1.3 41
2019-04-08 17:00:00 14.9 14 Oeste 29 Oeste 0 926.6 -0.9 45
2019-04-08 16:00:00 14.1 9 Oeste 36 Oeste 0 927 -0.7 44
2019-04-08 15:00:00 12.4 11 Oeste 32 Oeste 0 927.5 -0.1 54
2019-04-08 14:00:00 12.6 13 Oeste 35 Oeste 0 927.5 0.5 53
2019-04-08 13:00:00 11.1 16 Oeste 35 Oeste 0 927.7 0.8 62
2019-04-08 12:00:00 11.1 12 Oeste 32 Oeste 0 927.6 1 67
2019-04-08 11:00:00 9.9 12 Oeste 34 Oeste 0 927 1.1 79
2019-04-08 10:00:00 8.4 15 Oeste 26 Oeste 0 926.9 1.5 86
2019-04-08 09:00:00 8.1 13 Oeste 27 Oeste 0 926.6 1.5 91
2019-04-08 08:00:00 7.9 10 Oeste 24 Oeste 0 925.9 0.7 94
2019-04-08 07:00:00 8 5 Sudoeste 16 Sudoeste 0.2 925.4 0.1 97
2019-04-08 06:00:00 7.8 4 Sudoeste 10 Sur 0.4 925.1 -0.4 97
2019-04-08 05:00:00 7.8 5 Sur 13 Sur 0.8 925.2 -0.5 96
2019-04-08 04:00:00 7.7 5 Sur 14 Sur 0 925.3 -0.4 96
2019-04-08 03:00:00 7.3 5 Sur 14 Sudoeste 0 925.5 -0.5 97
2019-04-08 02:00:00 6.9 4 Sur 15 Sudoeste 0.2 925.7 -0.7 96
2019-04-08 01:00:00 6.7 5 Sur 14 Sur 0.2 925.7 -0.9 96
2019-04-08 00:00:00 6.2 6 Sur 16 Sur 0.4 926 -0.5 96
2019-04-07 23:00:00 6.1 8 Sudeste 21 Sudeste 0.4 926.4 -0.4 95
2019-04-07 22:00:00 6.4 9 Sudeste 21 Sudeste 0.4 926.6 -0.1 93
2019-04-07 21:00:00 6.5 5 Sudeste 15 Sudeste 0.8 926.5 0.4 92
2019-04-07 20:00:00 6.7 6 Sur 18 Sudoeste 0.6 926.8 1.2 89
2019-04-07 19:00:00 7.1 8 Sudoeste 27 Sudoeste 1 926.7 1.5 84
2019-04-07 18:00:00 9 12 Oeste 36 Oeste 0.2 926.1 0.5 70
2019-04-07 17:00:00 11.7 13 Oeste 28 Oeste 0 925.6 -0.1 44
2019-04-07 16:00:00 12.2 13 Sudoeste 30 Oeste 0 925.2 -0.5 39
2019-04-07 15:00:00 11.8 12 Oeste 26 Oeste 0 925.6 -0.2 43
2019-04-07 14:00:00 10.9 9 Oeste 24 Sudoeste 0 925.7 0.2 48
2019-04-07 13:00:00 9.6 9 Sudoeste 23 Sur 0 925.7 0.5 52
2019-04-07 12:00:00 8.1 9 Sudoeste 19 Sur 0 925.8 1.3 62
2019-04-07 11:00:00 6.2 8 Sudoeste 20 Sudoeste 0 925.5 2.1 72
2019-04-07 10:00:00 3.7 11 Oeste 22 Oeste 0 925.2 2.7 86
2019-04-07 09:00:00 2.6 12 Oeste 30 Oeste 0 924.5 2.7 92
2019-04-07 08:00:00 2.5 12 Oeste 30 Oeste 0 923.4 2.1 92
2019-04-07 07:00:00 2.2 11 Oeste 30 Oeste 0 922.5 1.6 92
2019-04-07 06:00:00 2.4 12 Oeste 34 Oeste 0 921.8 1.2 90
2019-04-07 05:00:00 3.1 14 Oeste 35 Oeste 0 921.3 0.8 87
2019-04-07 04:00:00 3.5 11 Oeste 28 Oeste 0 920.9 0.5 87
2019-04-07 03:00:00 3.6 15 Oeste 34 Oeste 0 920.6 0.7 84
2019-04-07 02:00:00 4.1 15 Oeste 40 Oeste 0 920.5 1.1 83
2019-04-07 01:00:00 4.2 13 Oeste 32 Oeste 0 920.4 1.5 80
2019-04-07 00:00:00 4.4 15 Oeste 41 Oeste 0 919.9 1.9 78
2019-04-06 23:00:00 5.3 17 Oeste 34 Sudoeste 0 919.4 2.3 71
2019-04-06 22:00:00 6 13 Oeste 36 Oeste 0 918.9 2.5 66
2019-04-06 21:00:00 6.9 19 Oeste 45 Oeste 0 918 2 61
2019-04-06 20:00:00 8 21 Oeste 54 Oeste 0 917.1 1.3 57
2019-04-06 19:00:00 9 25 Oeste 50 Oeste 0 916.4 1 58
2019-04-06 18:00:00 7.9 23 Oeste 50 Oeste 0 916 0.4 65
2019-04-06 17:00:00 7.8 26 Oeste 55 Oeste 0 915.8 0.1 67
2019-04-06 16:00:00 8.7 27 Oeste 54 Sudoeste 0 915.4 -0.4 65
2019-04-06 15:00:00 7.3 20 Oeste 51 Oeste 0 915.6 -0.2 78
2019-04-06 14:00:00 5.9 20 Oeste 48 Oeste 0.2 915.7 0.2 78
2019-04-06 13:00:00 5.9 14 Sudoeste 41 Oeste 0 915.8 0.1 75
2019-04-06 12:00:00 5.3 13 Sudoeste 32 Sudoeste 0.2 915.8 -0.1 78
2019-04-06 11:00:00 6.1 14 Sudoeste 45 Oeste 0 915.5 -0.2 74
2019-04-06 10:00:00 4.3 11 Sudoeste 33 Oeste 0 915.7 -0.1 85
2019-04-06 09:00:00 3.7 8 Sudoeste 20 Sudoeste 0 915.9 0.1 90
2019-04-06 08:00:00 3.2 4 Sur 17 Sudoeste 0.2 915.7 -0.3 94
2019-04-06 07:00:00 2.7 5 Sur 15 Sur 0.2 915.8 -0.3 92
2019-04-06 06:00:00 2.5 7 Sudoeste 18 Sudoeste 0 915.8 -0.6 91
2019-04-06 05:00:00 3.1 8 Sudoeste 16 Sudoeste 0 916 -0.5 88
2019-04-06 04:00:00 3.2 9 Sudoeste 22 Sudoeste 0 916.1 -0.3 87
2019-04-06 03:00:00 3.7 6 Sudoeste 19 Oeste 0 916.4 0.3 86
2019-04-06 02:00:00 3.6 10 Oeste 23 Oeste 0 916.5 0.8 87
2019-04-06 01:00:00 3.6 7 Sudoeste 17 Oeste 0 916.4 1.4 88
2019-04-06 00:00:00 3.6 6 Sur 12 Sudoeste 0 916.1 1.6 85
2019-04-05 23:00:00 4.3 4 Sur 17 Sur 0 915.7 2 82
2019-04-05 22:00:00 5 5 Sudoeste 27 Oeste 0.2 915 1.6 79
2019-04-05 21:00:00 5.6 10 Sur 22 Sudeste 0 914.5 1.4 84
2019-04-05 20:00:00 7.2 6 Sur 18 Sudeste 0 913.7 0.5 78
2019-04-05 19:00:00 6.6 8 Sudeste 19 Sudeste 0 913.4 0.1 80
2019-04-05 18:00:00 6.5 7 Sudeste 22 Sudeste 0 913.1 -0.5 82
2019-04-05 17:00:00 5.8 8 Sur 18 Sudeste 0 913.2 -0.4 81
2019-04-05 16:00:00 5.1 8 Sur 19 Sudoeste 0 913.3 -0.9 83
2019-04-05 15:00:00 7 8 Oeste 22 Sudoeste 0 913.6 -0.8 70
2019-04-05 14:00:00 7 5 Sudeste 18 Sur 0 913.6 -0.3 70
2019-04-05 13:00:00 5.7 7 Sudoeste 22 Oeste 0 914.2 0.9 71
2019-04-05 12:00:00 5.2 9 Oeste 24 Sudoeste 0 914.4 1.4 74
2019-04-05 11:00:00 4.4 12 Oeste 26 Oeste 0 913.9 1.1 82
2019-04-05 10:00:00 4.3 6 Sudoeste 17 Sudoeste 0 913.3 0.9 92
2019-04-05 09:00:00 3.9 4 Sur 15 Sudoeste 0.2 913 0.6 93
2019-04-05 08:00:00 3.9 8 Oeste 33 Sudoeste 0.2 912.8 0.1 91
2019-04-05 07:00:00 4.7 8 Sudoeste 23 Sur 0 912.4 -0.7 89
2019-04-05 06:00:00 4.8 8 Sur 14 Sur 0 912.4 -1.2 91
2019-04-05 05:00:00 4.5 5 Sur 19 Sur 0.6 912.7 -1.4 95
2019-04-05 04:00:00 4.5 8 Sur 21 Sur 1.6 913.1 -1.6 93
2019-04-05 03:00:00 4.8 6 Sur 18 Sudeste 0.6 913.6 -1.7 89
2019-04-05 02:00:00 5.1 7 Sur 17 Sur 0 914.1 -1.7 86
2019-04-05 01:00:00 5 8 Sur 17 Sur 0 914.7 -1.4 89
2019-04-05 00:00:00 4.9 6 Sur 14 Sur 0.4 915.3 -1 89
2019-04-04 23:00:00 5 4 Sudeste 16 Oeste 0 915.8 -0.6 86
2019-04-04 22:00:00 5 9 Oeste 22 Oeste 0.2 916.1 -0.1 83
2019-04-04 21:00:00 5.9 11 Oeste 31 Oeste 0 916.3 0.1 76
2019-04-04 20:00:00 7.9 14 Oeste 35 Oeste 0 916.4 0 52
2019-04-04 19:00:00 9.8 12 Oeste 32 Oeste 0 916.2 -0.9 33
2019-04-04 18:00:00 11 13 Sudoeste 31 Oeste 0 916.2 -2.1 31
2019-04-04 17:00:00 11.4 15 Oeste 35 Oeste 0 916.4 -2.6 30
2019-04-04 16:00:00 11.9 11 Sudoeste 31 Sudoeste 0 917.1 -2.9 28
2019-04-04 15:00:00 10.8 12 Sudoeste 27 Sur 0 918.3 -2 29
2019-04-04 14:00:00 9.7 9 Sudoeste 24 Sudoeste 0 919 -1.6 34
2019-04-04 13:00:00 8.1 13 Sur 26 Sudoeste 0 920 -0.6 41
2019-04-04 12:00:00 6.6 11 Sur 21 Sudoeste 0 920.3 -0.2 47
2019-04-04 11:00:00 4.5 7 Sur 16 Sur 0 920.6 0.4 57
2019-04-04 10:00:00 1.1 6 Sudoeste 19 Sudoeste 0 920.6 0.9 68
2019-04-04 09:00:00 -0.3 7 Sur 18 Sur 0 920.5 0.5 73
2019-04-04 08:00:00 -0.9 8 Sur 18 Oeste 0 920.2 -0.1 73
2019-04-04 07:00:00 0.7 8 Oeste 18 Oeste 0 919.7 -1 64
2019-04-04 06:00:00 0.4 2 Noroeste 17 Oeste 0 920 -1.3 68
2019-04-04 05:00:00 0.8 6 Noroeste 20 Oeste 0 920.3 -1.4 68
2019-04-04 04:00:00 1 9 Oeste 18 Oeste 0 920.7 -1.2 69
2019-04-04 03:00:00 1 3 Norte 14 Oeste 0 921.3 -0.9 70
2019-04-04 02:00:00 2.1 5 Oeste 21 Noroeste 0 921.7 -0.5 64
2019-04-04 01:00:00 2.7 9 Noroeste 21 Noroeste 0 921.9 0.5 60
2019-04-04 00:00:00 3.6 4 Noroeste 17 Noroeste 0 922.2 1.3 54
2019-04-03 23:00:00 4.6 7 Norte 27 Noroeste 0 922.2 1.8 50
2019-04-03 22:00:00 6.4 14 Noroeste 32 Noroeste 0 921.4 0.8 44
2019-04-03 21:00:00 7.6 12 Noroeste 35 Norte 0 920.9 0.2 32
2019-04-03 20:00:00 9.3 16 Noroeste 33 Noroeste 0 920.4 -0.4 28
2019-04-03 19:00:00 9.8 14 Noroeste 44 Noroeste 0 920.6 -0.6 35
2019-04-03 18:00:00 10.5 20 Noroeste 42 Noroeste 0 920.7 -1.2 37
2019-04-03 17:00:00 12.3 18 Noroeste 39 Norte 0 920.8 -1.6 28
2019-04-03 16:00:00 12.9 15 Noroeste 37 Oeste 0 921.2 -1.9 28
2019-04-03 15:00:00 11.9 14 Noroeste 37 Noroeste 0 921.9 -1.7 31
2019-04-03 14:00:00 10.8 10 Noroeste 33 Noroeste 0 922.4 -1.7 34
2019-04-03 13:00:00 10.2 12 Noroeste 27 Noroeste 0 923.1 -1.2 39
2019-04-03 12:00:00 9.8 12 Noroeste 26 Noroeste 0 923.6 -0.8 41
2019-04-03 11:00:00 6.6 11 Noroeste 24 Noroeste 0 924.1 -0.2 58
2019-04-03 10:00:00 5.9 12 Noroeste 29 Oeste 0 924.3 -0.3 63
2019-04-03 09:00:00 5.7 8 Noroeste 21 Noroeste 0 924.4 -0.6 72
2019-04-03 08:00:00 5.3 9 Noroeste 20 Norte 0 924.3 -1.2 76
2019-04-03 07:00:00 5 8 Noroeste 17 Noroeste 0 924.6 -1.6 77
2019-04-03 06:00:00 4.3 4 Oeste 10 Sudoeste 0 925 -1.9 86
2019-04-03 05:00:00 4.6 4 Sudoeste 9 Sudoeste 0 925.5 -1.6 86
2019-04-03 04:00:00 4.8 4 Oeste 7 Noroeste 0 926.2 -1.5 83
2019-04-03 03:00:00 5.5 4 Noroeste 8 Norte 0 926.9 -0.6 83
2019-04-03 02:00:00 6.2 5 Noroeste 17 Norte 0 927.1 -0.1 79
2019-04-03 01:00:00 7.4 7 Noroeste 18 Noroeste 0 927.7 1 75
2019-04-03 00:00:00 10.2 10 Noroeste 33 Noroeste 0 927.5 0.9 56
2019-04-02 23:00:00 12 14 Noroeste 31 Noroeste 0 927.2 0.6 42
2019-04-02 22:00:00 14.3 12 Oeste 21 Oeste 0 926.7 -0.1 41
2019-04-02 21:00:00 14.7 6 Oeste 18 Oeste 0 926.6 -0.4 40
2019-04-02 20:00:00 16.4 9 Oeste 25 Oeste 0 926.6 -0.9 34
2019-04-02 19:00:00 17.8 9 Oeste 29 Oeste 0 926.8 -1.2 30
2019-04-02 18:00:00 18.8 14 Oeste 31 Oeste 0 927 -1.7 27
2019-04-02 17:00:00 18.8 13 Oeste 31 Oeste 0 927.5 -2 32
2019-04-02 16:00:00 18.2 13 Oeste 26 Oeste 0 928 -2.1 36
2019-04-02 15:00:00 17.7 9 Oeste 22 Oeste 0 928.7 -1.9 40
2019-04-02 14:00:00 16.2 7 Oeste 21 Oeste 0 929.5 -1.1 49
2019-04-02 13:00:00 14.1 8 Sudoeste 22 Oeste 0 930.1 -0.2 55
2019-04-02 12:00:00 11.8 6 Sudoeste 12 Sur 0 930.6 0.3 62
2019-04-02 11:00:00 9.2 3 Norte 6 Norte 0 930.6 0.7 68
2019-04-02 10:00:00 7.4 4 Este 7 Este 0 930.3 0.7 72
2019-04-02 09:00:00 6.4 2 Oeste 6 Noroeste 0 930.3 0.9 77
2019-04-02 08:00:00 5.8 2 Norte 6 Noroeste 0 929.9 0.3 79
2019-04-02 07:00:00 6.3 3 Norte 6 Nordeste 0 929.6 -0.2 76
2019-04-02 06:00:00 7 2 Norte 5 Noroeste 0 929.4 -0.3 72
2019-04-02 05:00:00 7.8 0 Calma 5 Nordeste 0 929.6 -0.3 65
2019-04-02 04:00:00 8.3 2 Noroeste 8 Norte 0 929.8 -0.2 61
2019-04-02 03:00:00 8.8 2 Norte 8 Oeste 0 929.7 0.3 56
2019-04-02 02:00:00 9.1 5 Oeste 8 Noroeste 0 929.9 0.7 55
2019-04-02 01:00:00 9.9 3 Sudeste 11 Oeste 0 930 1.4 51
2019-04-02 00:00:00 10.5 3 Noroeste 5 Nordeste 0 929.4 1.5 48
2019-04-01 23:00:00 11.3 2 Noroeste 7 Noroeste 0 929.2 1.8 44
2019-04-01 22:00:00 12.4 6 Oeste 7 Noroeste 0 928.6 1.5 43
2019-04-01 21:00:00 14.4 3 Oeste 10 Oeste 0 927.9 0.8 36
2019-04-01 20:00:00 16 4 Oeste 15 Oeste 0 927.4 0.2 32
2019-04-01 19:00:00 17.3 6 Oeste 18 Oeste 0 927.1 -0.5 28
2019-04-01 18:00:00 17.2 7 Norte 18 Norte 0 927.1 -1.1 29
2019-04-01 17:00:00 18.5 6 Oeste 18 Oeste 0 927.2 -1.4 25
2019-04-01 16:00:00 17.9 6 Noroeste 16 Oeste 0 927.6 -1.5 32
2019-04-01 15:00:00 16.6 8 Este 15 Nordeste 0 928.2 -1.1 34
2019-04-01 14:00:00 15.5 5 Norte 13 Este 0 928.6 -0.6 38
2019-04-01 13:00:00 13.8 5 Norte 12 Nordeste 0 929.1 0.2 50
2019-04-01 12:00:00 11.8 5 Norte 13 Noroeste 0 929.3 0.6 59
2019-04-01 11:00:00 9.9 5 Nordeste 11 Nordeste 0 929.2 0.7 68
2019-04-01 10:00:00 7.1 4 Norte 10 Norte 0 928.9 0.7 78
2019-04-01 09:00:00 4.9 3 Norte 10 Nordeste 0 928.7 0.8 86
2019-04-01 08:00:00 3.9 4 Noroeste 9 Norte 0 928.5 0.6 89
2019-04-01 07:00:00 4 4 Noroeste 8 Norte 0 928.2 0.1 88
2019-04-01 06:00:00 4.6 3 Noroeste 8 Nordeste 0 927.9 -0.6 87
2019-04-01 05:00:00 5.1 3 Norte 6 Norte 0 927.9 -0.5 85
2019-04-01 04:00:00 5.5 2 Norte 8 Norte 0 928.1 0 83
2019-04-01 03:00:00 6.3 2 Noroeste 8 Sudeste 0 928.5 0.3 78
2019-04-01 02:00:00 7.4 3 Nordeste 8 Nordeste 0 928.4 0.5 74
2019-04-01 01:00:00 8.8 8 Este 22 Sudeste 0 928.1 0.8 68
2019-04-01 00:00:00 9.6 12 Este 32 Este 0 928.2 1.7 65
2019-03-31 23:00:00 10.2 17 Este 32 Sudeste 0 927.9 1.8 63
2019-03-31 22:00:00 11.1 14 Este 30 Este 0 927.3 1.7 62
2019-03-31 21:00:00 13.2 15 Este 30 Este 0 926.5 1 56
2019-03-31 20:00:00 14.9 17 Este 37 Este 0 926.1 0.5 46
2019-03-31 19:00:00 16.5 14 Este 24 Este 0 925.6 -0.5 36
2019-03-31 18:00:00 17.5 11 Este 29 Este 0 925.5 -1.3 30
2019-03-31 17:00:00 18.5 16 Este 31 Sudeste 0 925.6 -2 28
2019-03-31 16:00:00 17.9 13 Este 25 Sudeste 0 926.1 -2.3 28
2019-03-31 15:00:00 17.8 11 Este 27 Nordeste 0 926.8 -1.9 33
2019-03-31 14:00:00 17.7 8 Nordeste 17 Este 0 927.6 -1.3 36
2019-03-31 13:00:00 16.3 8 Nordeste 16 Este 0 928.4 -0.5 40
2019-03-31 12:00:00 13.6 3 Noroeste 12 Nordeste 0 928.7 -0.1 44
2019-03-31 11:00:00 11.3 5 Nordeste 14 Este 0 928.9 0.2 47
2019-03-31 10:00:00 8.9 3 Nordeste 11 Nordeste 0 928.9 0.2 51
2019-03-31 09:00:00 6.6 3 Norte 8 Nordeste 0 928.8 -0.1 58
2019-03-31 08:00:00 6.4 3 Nordeste 8 Nordeste 0 928.7 -0.8 55
2019-03-31 07:00:00 6.1 2 Norte 5 Noroeste 0 928.7 -1.1 55
2019-03-31 06:00:00 7 2 Nordeste 13 Este 0 928.9 -1.4 49
2019-03-31 05:00:00 8.2 9 Este 14 Este 0 929.5 -0.9 45
2019-03-31 03:00:00 8.6 5 Este 17 Este 0 930.3 -0.5 45
2019-03-31 01:00:00 8.4 2 Noroeste 7 Oeste 0 930.4 -0.5 52
2019-03-31 00:00:00 9.9 5 Noroeste 12 Sudeste 0 930.5 -0.3 44
2019-03-30 23:00:00 10.2 3 Noroeste 6 Noroeste 0 930.8 0.5 41
2019-03-30 22:00:00 11.2 2 Norte 12 Nordeste 0 930.9 0.8 37
2019-03-30 21:00:00 12.5 5 Noroeste 9 Noroeste 0 930.8 0.8 33
2019-03-30 20:00:00 14.1 5 Noroeste 9 Noroeste 0 930.3 0 30
2019-03-30 19:00:00 16.5 3 Nordeste 11 Norte 0 930.1 -0.6 21
2019-03-30 18:00:00 17 3 Norte 11 Nordeste 0 930 -1.5 23
2019-03-30 17:00:00 18.7 4 Norte 16 Norte 0 930.3 -2.1 21
2019-03-30 16:00:00 17.9 5 Nordeste 17 Nordeste 0 930.7 -2.4 24
2019-03-30 15:00:00 18.8 5 Norte 13 Norte 0 931.5 -2.1 24
2019-03-30 14:00:00 17.6 6 Noroeste 16 Este 0 932.4 -1.9 24
2019-03-30 13:00:00 16.6 5 Noroeste 12 Este 0 933.1 -1.4 29
2019-03-30 12:00:00 15.2 6 Sur 13 Sur 0 933.6 -1 32
2019-03-30 11:00:00 12.9 6 Sudeste 17 Sudeste 0 934.3 -0.3 42
2019-03-30 10:00:00 10.8 6 Sudeste 12 Este 0 934.5 0.1 47
2019-03-30 09:00:00 9.2 3 Este 9 Este 0 934.6 0.2 51
2019-03-30 08:00:00 5.9 4 Este 8 Este 0 934.6 0.3 62
2019-03-30 07:00:00 6.2 3 Sudeste 7 Sudeste 0 934.4 -0.3 60
2019-03-30 06:00:00 7.1 4 Sudeste 12 Sur 0 934.4 -0.5 56
2019-03-30 05:00:00 7.2 4 Sur 11 Sur 0 934.3 -0.5 55
2019-03-30 04:00:00 7.6 2 Sudoeste 9 Sur 0 934.7 -0.3 49
2019-03-30 03:00:00 8.4 3 Sudoeste 12 Sur 0 934.9 -0.1 42
2019-03-30 02:00:00 9.2 5 Sur 15 Sur 0 934.8 -0.2 39
2019-03-30 01:00:00 9.8 5 Sur 15 Sur 0 935 0.1 36
2019-03-30 00:00:00 10.7 3 Sudoeste 14 Sur 0 935 0.5 33
2019-03-29 23:00:00 12.1 8 Sur 15 Sur 0 935 1.1 29
2019-03-29 22:00:00 13.2 5 Sur 12 Sudeste 0 934.9 1.1 28
2019-03-29 21:00:00 14.6 5 Sur 14 Sudoeste 0 934.5 0.9 26
2019-03-29 20:00:00 15.6 5 Oeste 12 Sudoeste 0 933.9 0.2 26
2019-03-29 19:00:00 17.7 7 Sudoeste 13 Oeste 0 933.8 -0.4 20
2019-03-29 18:00:00 18.7 6 Sudeste 20 Sudoeste 0 933.6 -1.4 18
2019-03-29 17:00:00 19.5 5 Sur 19 Sur 0 933.7 -2 18
2019-03-29 16:00:00 19.8 5 Este 22 Sudoeste 0 934.2 -2.2 18
2019-03-29 15:00:00 19 7 Sur 23 Sur 0 935 -2 18
2019-03-29 14:00:00 18.8 8 Sudoeste 20 Sudoeste 0 935.7 -1.8 18
2019-03-29 13:00:00 17.7 9 Sur 21 Sudoeste 0 936.4 -1.3 22
2019-03-29 12:00:00 16.2 10 Sur 23 Sur 0 937 -0.8 25
2019-03-29 11:00:00 13.6 8 Sur 20 Sur 0 937.5 -0.3 32
2019-03-29 10:00:00 10.4 6 Sudeste 13 Sur 0 937.7 0.1 43
2019-03-29 09:00:00 5.3 2 Norte 6 Norte 0 937.8 0.3 67
2019-03-29 08:00:00 2.6 3 Noroeste 6 Noroeste 0 937.8 0.5 80
2019-03-29 07:00:00 2.5 2 Norte 6 Norte 0 937.6 0.2 80
2019-03-29 06:00:00 3 3 Norte 7 Norte 0 937.5 -0.2 81
2019-03-29 05:00:00 3.7 3 Noroeste 8 Norte 0 937.3 -0.5 78
2019-03-29 04:00:00 4.6 4 Noroeste 8 Norte 0 937.4 -0.7 75
2019-03-29 03:00:00 5.7 4 Noroeste 13 Norte 0 937.7 -0.5 71
2019-03-29 02:00:00 6.6 4 Norte 10 Norte 0 937.8 -0.5 69
2019-03-29 01:00:00 7.4 4 Noroeste 9 Nordeste 0 938.1 -0.1 66
2019-03-29 00:00:00 8.9 3 Norte 13 Norte 0 938.2 0.2 59
2019-03-28 23:00:00 9.8 4 Norte 15 Norte 0 938.3 0.9 56
2019-03-28 22:00:00 11.1 4 Norte 15 Nordeste 0 938.2 1 48
2019-03-28 21:00:00 13 5 Nordeste 24 Nordeste 0 938 0.9 41
2019-03-28 20:00:00 14.8 8 Nordeste 26 Nordeste 0 937.4 -0.1 34
2019-03-28 19:00:00 16.6 7 Nordeste 19 Este 0 937.2 -0.8 27
2019-03-28 18:00:00 17.6 6 Nordeste 17 Este 0 937.1 -1.6 26
2019-03-28 17:00:00 18.3 9 Este 22 Este 0 937.5 -1.9 23
2019-03-28 16:00:00 18.1 8 Este 19 Este 0 938 -2.3 26
2019-03-28 15:00:00 17.3 8 Nordeste 21 Este 0 938.7 -2.1 28
2019-03-28 14:00:00 15.8 7 Norte 21 Este 0 939.4 -1.7 30
2019-03-28 13:00:00 14.6 9 Este 26 Sudeste 0 940.3 -1 34
2019-03-28 12:00:00 13.5 11 Este 24 Este 0 940.8 -0.4 32
2019-03-28 11:00:00 11 5 Nordeste 21 Nordeste 0 941.1 -0.2 45
2019-03-28 10:00:00 7.5 5 Norte 18 Nordeste 0 941.3 0.4 60
2019-03-28 09:00:00 4.9 6 Norte 20 Nordeste 0 941.2 0.5 69
2019-03-28 08:00:00 3.2 5 Norte 16 Nordeste 0 941.3 1.1 73
2019-03-28 07:00:00 2.4 4 Norte 11 Norte 0 940.9 0.7 70
2019-03-28 06:00:00 2.8 5 Norte 18 Nordeste 0 940.7 0.4 63
2019-03-28 05:00:00 3.3 5 Norte 14 Norte 0 940.2 -0.1 54
2019-03-28 04:00:00 4.2 6 Norte 21 Nordeste 0 940.2 -0.2 44
2019-03-28 03:00:00 5.1 6 Norte 19 Norte 0 940.3 0.2 37
2019-03-28 02:00:00 5.7 5 Norte 18 Nordeste 0 940.3 0.8 34
2019-03-28 01:00:00 6.3 4 Norte 20 Nordeste 0 940.4 1 31
2019-03-28 00:00:00 7.7 7 Nordeste 26 Nordeste 0 940.1 1.5 32
2019-03-27 23:00:00 8.9 8 Nordeste 27 Norte 0 939.5 1.6 32
2019-03-27 22:00:00 10.3 8 Nordeste 40 Este 0 939.4 2.2 29
2019-03-27 21:00:00 11.8 10 Nordeste 31 Este 0 938.6 2.1 24
2019-03-27 20:00:00 13.6 8 Nordeste 37 Nordeste 0 937.9 1.2 21
2019-03-27 19:00:00 15.4 12 Nordeste 42 Nordeste 0 937.2 0.3 16
2019-03-27 18:00:00 16.8 9 Norte 34 Nordeste 0 936.5 -0.7 17
2019-03-27 17:00:00 18.1 9 Norte 31 Nordeste 0 936.7 -1.1 15
2019-03-27 16:00:00 18.3 8 Nordeste 27 Norte 0 936.9 -1.4 16
2019-03-27 15:00:00 18.3 6 Norte 27 Nordeste 0 937.2 -1.5 15
2019-03-27 14:00:00 17.6 8 Nordeste 24 Nordeste 0 937.8 -1.1 16
2019-03-27 13:00:00 15.9 7 Nordeste 26 Este 0 938.3 -0.5 21
2019-03-27 12:00:00 14 8 Nordeste 17 Nordeste 0 938.7 0 27
2019-03-27 11:00:00 11.3 5 Nordeste 19 Nordeste 0 938.9 0.5 39
2019-03-27 10:00:00 8.5 5 Nordeste 19 Nordeste 0 938.8 1.1 48
2019-03-27 09:00:00 5.6 4 Nordeste 13 Norte 0 938.7 1.5 60
2019-03-27 08:00:00 3.4 4 Norte 19 Norte 0 938.4 1.5 70
2019-03-27 07:00:00 2.7 6 Norte 19 Nordeste 0 937.7 1.2 73
2019-03-27 06:00:00 3.3 7 Norte 19 Norte 0 937.2 0.2 70
2019-03-27 05:00:00 3.7 5 Norte 21 Nordeste 0 936.9 -0.2 68
2019-03-27 04:00:00 3.9 6 Norte 16 Norte 0 936.5 -0.4 63
2019-03-27 03:00:00 4.1 5 Norte 21 Norte 0 937 0 56
2019-03-27 02:00:00 4.6 5 Norte 22 Nordeste 0 937.1 0.2 51
2019-03-27 01:00:00 5.7 7 Nordeste 24 Nordeste 0 936.9 0.6 45
2019-03-27 00:00:00 6.2 6 Nordeste 21 Nordeste 0 937 1.4 37
2019-03-26 23:00:00 7.3 8 Norte 32 Nordeste 0 936.9 2.2 29
2019-03-26 22:00:00 8.9 8 Norte 26 Norte 0 936.3 2.2 23
2019-03-26 21:00:00 10.4 7 Norte 39 Norte 0 935.6 2.3 20
2019-03-26 20:00:00 12.2 14 Nordeste 39 Nordeste 0 934.7 1.5 19
2019-03-26 19:00:00 14.4 10 Nordeste 39 Nordeste 0 934.1 0.7 18
2019-03-26 18:00:00 16.4 9 Nordeste 33 Nordeste 0 933.3 -0.5 17
2019-03-26 17:00:00 17.6 9 Norte 37 Nordeste 0 933.2 -1.2 17
2019-03-26 16:00:00 18.2 9 Nordeste 32 Norte 0 933.4 -1.5 18
2019-03-26 15:00:00 17.6 11 Nordeste 32 Nordeste 0 933.8 -1.6 19
2019-03-26 14:00:00 16.4 10 Nordeste 40 Este 0 934.4 -1.3 22
2019-03-26 13:00:00 14.1 10 Nordeste 33 Norte 0 934.9 -1.1 29
2019-03-26 12:00:00 11.8 9 Nordeste 33 Nordeste 0 935.4 -0.5 34
2019-03-26 11:00:00 10 8 Nordeste 35 Nordeste 0 935.7 -0.2 43
2019-03-26 10:00:00 7.2 10 Nordeste 39 Norte 0 936 0.6 52
2019-03-26 09:00:00 5.8 12 Nordeste 39 Nordeste 0 935.9 0.4 59
2019-03-26 08:00:00 4.6 11 Nordeste 36 Nordeste 0 935.9 0.5 66
2019-03-26 07:00:00 4.4 13 Nordeste 37 Nordeste 0 935.4 -0.1 70
2019-03-26 06:00:00 4.7 9 Nordeste 37 Nordeste 0 935.5 -0.6 71
2019-03-26 05:00:00 4.6 8 Nordeste 32 Nordeste 0 935.4 -1.6 73
2019-03-26 04:00:00 4 8 Nordeste 26 Norte 0 935.5 -1.6 74
2019-03-26 03:00:00 3.9 8 Norte 31 Nordeste 0 936.1 -0.8 71
2019-03-26 02:00:00 4 8 Nordeste 33 Norte 0 937 0.2 68
2019-03-26 01:00:00 4.4 6 Norte 26 Nordeste 0 937.1 1.1 66
2019-03-26 00:00:00 5.3 7 Norte 28 Nordeste 0 936.9 1.1 56
2019-03-25 23:00:00 6.4 10 Nordeste 40 Nordeste 0 936.8 1.4 54
2019-03-25 22:00:00 7.5 9 Nordeste 35 Nordeste 0 936 0.6 51
2019-03-25 21:00:00 8.9 9 Nordeste 38 Nordeste 0 935.8 0.5 49
2019-03-25 20:00:00 10.4 7 Norte 31 Nordeste 0 935.4 -0.1 45
2019-03-25 19:00:00 11.9 9 Nordeste 33 Norte 0 935.4 -0.4 43
2019-03-25 18:00:00 13.4 12 Nordeste 36 Nordeste 0 935.3 -0.9 38
2019-03-25 17:00:00 14.8 9 Nordeste 36 Nordeste 0 935.5 -1.7 33
2019-03-25 16:00:00 15.3 9 Norte 32 Nordeste 0 935.8 -2.1 33
2019-03-25 15:00:00 15 10 Norte 29 Nordeste 0 936.2 -2.2 37
2019-03-25 14:00:00 14 10 Norte 35 Nordeste 0 937.2 -1.5 43
2019-03-25 13:00:00 13.8 8 Nordeste 28 Nordeste 0 937.9 -0.8 43
2019-03-25 12:00:00 12.2 10 Norte 32 Nordeste 0 938.4 -0.1 48
2019-03-25 11:00:00 11.2 8 Nordeste 27 Nordeste 0 938.7 0.5 53
2019-03-25 10:00:00 9 8 Norte 22 Nordeste 0 938.7 0.9 66
2019-03-25 09:00:00 6.9 6 Norte 17 Norte 0 938.5 0.9 74
2019-03-25 08:00:00 5.3 6 Norte 28 Nordeste 0 938.2 0.9 75
2019-03-25 07:00:00 5.5 6 Norte 15 Norte 0 937.8 0.3 69
2019-03-25 06:00:00 5.9 5 Norte 14 Norte 0 937.6 0 67
2019-03-25 05:00:00 6.6 5 Norte 17 Norte 0 937.3 -0.7 65
2019-03-25 04:00:00 7.3 5 Norte 17 Nordeste 0 937.5 -0.4 63
2019-03-25 03:00:00 7.8 7 Norte 19 Nordeste 0 937.6 -0.5 63
2019-03-25 02:00:00 9 4 Norte 14 Noroeste 0 938 0.1 58
2019-03-25 01:00:00 10.1 4 Norte 17 Este 0 937.9 0.3 55
2019-03-25 00:00:00 11.2 4 Norte 19 Norte 0 938.1 1.2 53